createdAt,value
2023-02-24T00:00:07.576Z,20.00
2023-02-24T00:00:28.600Z,19.20
2023-02-24T00:00:49.675Z,18.70
2023-02-24T00:01:10.757Z,19.00
2023-02-24T00:01:31.824Z,19.60
2023-02-24T00:01:52.883Z,20.60
2023-02-24T00:02:14.018Z,19.90
2023-02-24T00:02:35.097Z,19.10
2023-02-24T00:02:56.213Z,19.50
2023-02-24T00:03:17.309Z,19.80
2023-02-24T00:03:38.380Z,20.20
2023-02-24T00:03:59.496Z,20.50
2023-02-24T00:04:20.546Z,20.50
2023-02-24T00:04:41.613Z,18.80
2023-02-24T00:05:02.679Z,19.80
2023-02-24T00:05:23.749Z,20.30
2023-02-24T00:05:44.816Z,20.60
2023-02-24T00:06:05.947Z,19.80
2023-02-24T00:06:26.981Z,19.50
2023-02-24T00:06:48.079Z,21.10
2023-02-24T00:07:09.106Z,19.90
2023-02-24T00:07:30.164Z,19.50
2023-02-24T00:07:51.223Z,20.30
2023-02-24T00:08:12.314Z,20.00
2023-02-24T00:08:33.376Z,19.90
2023-02-24T00:08:54.425Z,19.70
2023-02-24T00:09:15.513Z,19.10
2023-02-24T00:09:36.528Z,19.20
2023-02-24T00:09:57.595Z,18.80
2023-02-24T00:10:18.651Z,19.80
2023-02-24T00:10:39.718Z,19.90
2023-02-24T00:11:00.780Z,19.90
2023-02-24T00:11:22.297Z,20.40
2023-02-24T00:11:43.547Z,21.00
2023-02-24T00:12:04.769Z,19.80
2023-02-24T00:12:25.810Z,19.60
2023-02-24T00:12:46.877Z,19.30
2023-02-24T00:13:07.957Z,19.80
2023-02-24T00:13:29.025Z,19.80
2023-02-24T00:13:50.090Z,18.60
2023-02-24T00:14:11.146Z,19.10
2023-02-24T00:14:32.190Z,19.90
2023-02-24T00:14:53.263Z,20.40
2023-02-24T00:15:14.309Z,20.40
2023-02-24T00:15:35.370Z,19.20
2023-02-24T00:15:56.464Z,18.10
2023-02-24T00:16:17.657Z,19.80
2023-02-24T00:16:39.012Z,20.10
2023-02-24T00:17:00.308Z,19.80
2023-02-24T00:17:21.587Z,19.30
2023-02-24T00:17:42.627Z,20.00
2023-02-24T00:18:03.684Z,19.40
2023-02-24T00:18:24.854Z,19.20
2023-02-24T00:18:45.957Z,18.50
2023-02-24T00:19:07.029Z,19.40
2023-02-24T00:19:28.083Z,19.70
2023-02-24T00:19:49.141Z,19.50
2023-02-24T00:20:10.198Z,19.40
2023-02-24T00:20:31.267Z,19.70
2023-02-24T00:20:52.315Z,19.70
2023-02-24T00:21:13.386Z,19.60
2023-02-24T00:21:34.455Z,19.50
2023-02-24T00:21:55.519Z,20.60
2023-02-24T00:22:16.547Z,20.00
2023-02-24T00:22:37.625Z,19.70
2023-02-24T00:22:58.778Z,19.20
2023-02-24T00:23:19.799Z,19.30
2023-02-24T00:23:40.879Z,19.60
2023-02-24T00:24:02.028Z,20.80
2023-02-24T00:24:23.062Z,20.00
2023-02-24T00:24:44.098Z,20.40
2023-02-24T00:25:05.150Z,20.10
2023-02-24T00:25:26.228Z,21.10
2023-02-24T00:25:47.280Z,21.30
2023-02-24T00:26:08.346Z,19.30
2023-02-24T00:26:29.414Z,20.00
2023-02-24T00:26:50.461Z,20.20
2023-02-24T00:27:11.520Z,20.70
2023-02-24T00:27:32.570Z,19.80
2023-02-24T00:27:53.807Z,18.60
2023-02-24T00:28:14.889Z,18.80
2023-02-24T00:28:35.936Z,18.80
2023-02-24T00:28:57.018Z,19.70
2023-02-24T00:29:18.054Z,19.80
2023-02-24T00:29:39.123Z,18.80
2023-02-24T00:30:00.181Z,19.90
2023-02-24T00:30:21.239Z,19.10
2023-02-24T00:30:42.324Z,19.60
2023-02-24T00:31:03.525Z,19.50
2023-02-24T00:31:25.097Z,18.50
2023-02-24T00:31:46.861Z,18.60
2023-02-24T00:32:08.337Z,18.70
2023-02-24T00:32:29.575Z,18.70
2023-02-24T00:32:50.841Z,18.60
2023-02-24T00:33:12.101Z,18.70
2023-02-24T00:33:33.163Z,19.10
2023-02-24T00:33:54.265Z,19.10
2023-02-24T00:34:15.375Z,18.70
2023-02-24T00:34:36.415Z,19.60
2023-02-24T00:34:57.523Z,18.90
2023-02-24T00:35:18.599Z,19.00
2023-02-24T00:35:39.642Z,19.10
2023-02-24T00:36:00.700Z,19.40
2023-02-24T00:36:21.772Z,18.30
2023-02-24T00:36:42.819Z,19.50
2023-02-24T00:37:03.910Z,19.50
2023-02-24T00:37:24.957Z,18.50
2023-02-24T00:37:46.034Z,18.50
2023-02-24T00:38:07.088Z,18.70
2023-02-24T00:38:28.300Z,19.80
2023-02-24T00:38:49.359Z,20.10
2023-02-24T00:39:10.427Z,19.70
2023-02-24T00:39:31.487Z,19.30
2023-02-24T00:39:52.577Z,19.10
2023-02-24T00:40:13.621Z,19.80
2023-02-24T00:40:34.675Z,18.50
2023-02-24T00:40:55.731Z,18.90
2023-02-24T00:41:16.808Z,19.10
2023-02-24T00:41:37.858Z,20.00
2023-02-24T00:41:58.988Z,19.50
2023-02-24T00:42:20.028Z,19.20
2023-02-24T00:42:41.083Z,19.30
2023-02-24T00:43:02.144Z,18.80
2023-02-24T00:43:23.199Z,18.90
2023-02-24T00:43:44.273Z,19.40
2023-02-24T00:44:05.353Z,19.60
2023-02-24T00:44:26.397Z,19.50
2023-02-24T00:44:47.486Z,19.00
2023-02-24T00:45:08.549Z,18.90
2023-02-24T00:45:29.601Z,19.40
2023-02-24T00:45:50.686Z,18.80
2023-02-24T00:46:11.751Z,19.10
2023-02-24T00:46:32.932Z,18.90
2023-02-24T00:46:53.971Z,20.10
2023-02-24T00:47:15.026Z,19.60
2023-02-24T00:47:36.079Z,19.50
2023-02-24T00:47:57.137Z,19.90
2023-02-24T00:48:18.195Z,20.00
2023-02-24T00:48:39.279Z,20.30
2023-02-24T00:49:00.346Z,19.20
2023-02-24T00:49:21.391Z,19.70
2023-02-24T00:49:43.152Z,19.10
2023-02-24T00:50:04.325Z,21.20
2023-02-24T00:50:25.386Z,20.70
2023-02-24T00:50:46.444Z,19.30
2023-02-24T00:51:07.516Z,19.80
2023-02-24T00:51:28.604Z,20.10
2023-02-24T00:51:49.666Z,19.80
2023-02-24T00:52:10.766Z,19.80
2023-02-24T00:52:31.786Z,19.40
2023-02-24T00:52:52.844Z,20.20
2023-02-24T00:53:13.903Z,19.90
2023-02-24T00:53:34.970Z,19.50
2023-02-24T00:53:56.200Z,19.00
2023-02-24T00:54:17.385Z,18.80
2023-02-24T00:54:38.430Z,18.80
2023-02-24T00:54:59.499Z,20.00
2023-02-24T00:55:20.567Z,20.50
2023-02-24T00:55:41.622Z,20.20
2023-02-24T00:56:02.681Z,19.80
2023-02-24T00:56:23.736Z,19.70
2023-02-24T00:56:44.813Z,18.90
2023-02-24T00:57:05.874Z,19.50
2023-02-24T00:57:26.929Z,19.40
2023-02-24T00:57:47.990Z,20.10
2023-02-24T00:58:09.044Z,19.50
2023-02-24T00:58:30.119Z,18.70
2023-02-24T00:58:51.182Z,18.10
2023-02-24T00:59:12.304Z,18.90
2023-02-24T00:59:33.345Z,19.50
2023-02-24T00:59:54.401Z,19.80
2023-02-24T01:00:15.484Z,19.60
2023-02-24T01:00:36.536Z,18.90
2023-02-24T01:00:57.594Z,19.50
2023-02-24T01:01:18.956Z,18.90
2023-02-24T01:01:40.322Z,19.30
2023-02-24T01:02:01.420Z,19.60
2023-02-24T01:02:22.456Z,19.30
2023-02-24T01:02:43.515Z,20.00
2023-02-24T01:03:04.589Z,18.80
2023-02-24T01:03:25.644Z,18.50
2023-02-24T01:03:46.766Z,19.70
2023-02-24T01:04:07.910Z,19.40
2023-02-24T01:04:28.991Z,19.70
2023-02-24T01:04:50.119Z,19.10
2023-02-24T01:05:11.142Z,19.50
2023-02-24T01:05:32.190Z,19.30
2023-02-24T01:05:53.249Z,18.90
2023-02-24T01:06:14.309Z,18.20
2023-02-24T01:06:35.393Z,17.50
2023-02-24T01:06:56.433Z,18.90
2023-02-24T01:07:17.524Z,19.90
2023-02-24T01:07:38.547Z,18.90
2023-02-24T01:07:59.611Z,18.90
2023-02-24T01:08:20.661Z,19.30
2023-02-24T01:08:41.753Z,20.00
2023-02-24T01:09:02.784Z,19.40
2023-02-24T01:09:23.899Z,19.70
2023-02-24T01:09:44.980Z,17.80
2023-02-24T01:10:06.054Z,17.70
2023-02-24T01:10:27.112Z,18.80
2023-02-24T01:10:48.180Z,18.90
2023-02-24T01:11:09.236Z,19.00
2023-02-24T01:11:30.314Z,18.90
2023-02-24T01:11:51.431Z,18.40
2023-02-24T01:12:12.577Z,18.60
2023-02-24T01:12:33.646Z,18.70
2023-02-24T01:12:54.725Z,18.10
2023-02-24T01:13:15.766Z,18.60
2023-02-24T01:13:36.843Z,18.80
2023-02-24T01:13:57.907Z,19.20
2023-02-24T01:14:18.948Z,17.90
2023-02-24T01:14:40.025Z,18.00
2023-02-24T01:15:01.094Z,17.90
2023-02-24T01:15:22.154Z,18.30
2023-02-24T01:15:43.221Z,18.90
2023-02-24T01:16:04.306Z,17.90
2023-02-24T01:16:25.398Z,17.90
2023-02-24T01:16:46.433Z,17.60
2023-02-24T01:17:07.552Z,17.90
2023-02-24T01:17:28.649Z,17.70
2023-02-24T01:17:49.730Z,18.10
2023-02-24T01:18:10.759Z,17.40
2023-02-24T01:18:31.830Z,16.90
2023-02-24T01:18:52.866Z,18.00
2023-02-24T01:19:13.920Z,17.30
2023-02-24T01:19:34.984Z,16.80
2023-02-24T01:19:56.145Z,17.30
2023-02-24T01:20:17.245Z,17.20
2023-02-24T01:20:38.298Z,16.70
2023-02-24T01:20:59.351Z,17.90
2023-02-24T01:21:20.705Z,17.60
2023-02-24T01:21:41.924Z,17.50
2023-02-24T01:22:02.983Z,17.40
2023-02-24T01:22:24.066Z,17.70
2023-02-24T01:22:45.105Z,16.80
2023-02-24T01:23:06.159Z,16.50
2023-02-24T01:23:27.225Z,17.90
2023-02-24T01:23:48.292Z,17.30
2023-02-24T01:24:09.358Z,16.80
2023-02-24T01:24:30.413Z,17.10
2023-02-24T01:24:51.508Z,17.10
2023-02-24T01:25:12.566Z,16.70
2023-02-24T01:25:33.626Z,16.40
2023-02-24T01:25:54.687Z,16.30
2023-02-24T01:26:15.803Z,16.00
2023-02-24T01:26:36.856Z,15.90
2023-02-24T01:26:57.909Z,16.60
2023-02-24T01:27:19.293Z,16.40
2023-02-24T01:27:40.472Z,17.00
2023-02-24T01:28:01.582Z,16.00
2023-02-24T01:28:22.613Z,16.60
2023-02-24T01:28:43.687Z,16.10
2023-02-24T01:29:04.757Z,16.80
2023-02-24T01:29:25.816Z,16.90
2023-02-24T01:29:46.866Z,16.50
2023-02-24T01:30:07.928Z,16.70
2023-02-24T01:30:28.990Z,16.50
2023-02-24T01:30:50.067Z,17.00
2023-02-24T01:31:11.207Z,16.00
2023-02-24T01:31:32.441Z,17.50
2023-02-24T01:31:53.704Z,16.50
2023-02-24T01:32:15.081Z,16.90
2023-02-24T01:32:36.498Z,17.20
2023-02-24T01:32:57.801Z,16.20
2023-02-24T01:33:19.028Z,16.10
2023-02-24T01:33:40.065Z,15.40
2023-02-24T01:34:01.121Z,16.20
2023-02-24T01:34:22.179Z,15.90
2023-02-24T01:34:43.249Z,16.80
2023-02-24T01:35:04.361Z,16.30
2023-02-24T01:35:25.407Z,16.40
2023-02-24T01:35:46.465Z,16.00
2023-02-24T01:36:07.670Z,16.50
2023-02-24T01:36:28.724Z,15.90
2023-02-24T01:36:49.804Z,15.80
2023-02-24T01:37:10.851Z,16.20
2023-02-24T01:37:31.953Z,15.50
2023-02-24T01:37:53.026Z,16.00
2023-02-24T01:38:14.046Z,17.10
2023-02-24T01:38:35.101Z,16.00
2023-02-24T01:38:56.166Z,16.10
2023-02-24T01:39:17.244Z,16.00
2023-02-24T01:39:38.286Z,16.80
2023-02-24T01:39:59.374Z,16.40
2023-02-24T01:40:20.416Z,16.00
2023-02-24T01:40:41.497Z,16.50
2023-02-24T01:41:02.580Z,16.70
2023-02-24T01:41:23.796Z,16.50
2023-02-24T01:41:44.849Z,16.20
2023-02-24T01:42:05.941Z,15.80
2023-02-24T01:42:26.987Z,16.20
2023-02-24T01:42:48.035Z,15.90
2023-02-24T01:43:09.107Z,16.40
2023-02-24T01:43:30.159Z,16.70
2023-02-24T01:43:51.226Z,16.00
2023-02-24T01:44:12.277Z,15.70
2023-02-24T01:44:33.360Z,16.00
2023-02-24T01:44:54.404Z,16.50
2023-02-24T01:45:15.468Z,16.70
2023-02-24T01:45:36.580Z,15.80
2023-02-24T01:45:57.616Z,16.20
2023-02-24T01:46:18.760Z,16.40
2023-02-24T01:46:40.138Z,15.90
2023-02-24T01:47:01.170Z,16.10
2023-02-24T01:47:22.227Z,16.00
2023-02-24T01:47:43.306Z,15.80
2023-02-24T01:48:04.353Z,15.90
2023-02-24T01:48:25.411Z,16.40
2023-02-24T01:48:46.474Z,16.50
2023-02-24T01:49:07.530Z,15.30
2023-02-24T01:49:28.606Z,15.60
2023-02-24T01:49:49.671Z,15.70
2023-02-24T01:50:10.706Z,16.30
2023-02-24T01:50:31.775Z,16.00
2023-02-24T01:50:52.831Z,15.10
2023-02-24T01:51:13.868Z,16.10
2023-02-24T01:51:34.930Z,16.50
2023-02-24T01:51:56.021Z,15.90
2023-02-24T01:52:17.065Z,15.00
2023-02-24T01:52:38.157Z,15.00
2023-02-24T01:52:59.227Z,15.50
2023-02-24T01:53:20.274Z,16.00
2023-02-24T01:53:41.344Z,15.80
2023-02-24T01:54:02.404Z,15.90
2023-02-24T01:54:23.466Z,16.10
2023-02-24T01:54:44.500Z,16.00
2023-02-24T01:55:05.587Z,16.60
2023-02-24T01:55:26.629Z,15.20
2023-02-24T01:55:47.710Z,16.20
2023-02-24T01:56:08.751Z,16.10
2023-02-24T01:56:29.805Z,16.30
2023-02-24T01:56:50.854Z,16.00
2023-02-24T01:57:11.942Z,15.00
2023-02-24T01:57:32.999Z,16.00
2023-02-24T01:57:54.062Z,16.30
2023-02-24T01:58:15.129Z,15.10
2023-02-24T01:58:36.167Z,15.40
2023-02-24T01:58:57.224Z,14.80
2023-02-24T01:59:18.275Z,15.30
2023-02-24T01:59:39.339Z,14.90
2023-02-24T02:00:00.394Z,16.10
2023-02-24T02:00:21.455Z,16.30
2023-02-24T02:00:42.507Z,15.30
2023-02-24T02:01:03.565Z,15.60
2023-02-24T02:01:24.723Z,15.20
2023-02-24T02:01:45.952Z,16.00
2023-02-24T02:02:07.341Z,15.90
2023-02-24T02:02:28.630Z,16.00
2023-02-24T02:02:49.784Z,16.10
2023-02-24T02:03:10.840Z,15.80
2023-02-24T02:03:31.911Z,15.70
2023-02-24T02:03:52.955Z,15.00
2023-02-24T02:04:14.026Z,15.30
2023-02-24T02:04:35.085Z,15.60
2023-02-24T02:04:56.135Z,15.50
2023-02-24T02:05:17.236Z,15.00
2023-02-24T02:05:38.258Z,15.30
2023-02-24T02:05:59.327Z,16.20
2023-02-24T02:06:20.366Z,15.40
2023-02-24T02:06:41.461Z,15.40
2023-02-24T02:07:02.503Z,15.30
2023-02-24T02:07:23.567Z,14.60
2023-02-24T02:07:44.680Z,16.00
2023-02-24T02:08:05.715Z,15.90
2023-02-24T02:08:26.766Z,15.30
2023-02-24T02:08:47.846Z,15.40
2023-02-24T02:09:08.876Z,16.20
2023-02-24T02:09:29.936Z,15.50
2023-02-24T02:09:51.013Z,15.60
2023-02-24T02:10:12.054Z,16.30
2023-02-24T02:10:33.125Z,16.50
2023-02-24T02:10:54.193Z,16.30
2023-02-24T02:11:15.253Z,15.80
2023-02-24T02:11:36.313Z,15.80
2023-02-24T02:11:57.370Z,15.20
2023-02-24T02:12:18.452Z,15.40
2023-02-24T02:12:39.476Z,15.00
2023-02-24T02:13:00.690Z,15.10
2023-02-24T02:13:21.853Z,16.00
2023-02-24T02:13:43.058Z,15.80
2023-02-24T02:14:04.217Z,16.50
2023-02-24T02:14:25.242Z,15.40
2023-02-24T02:14:46.378Z,15.90
2023-02-24T02:15:07.403Z,16.10
2023-02-24T02:15:28.449Z,14.80
2023-02-24T02:15:49.592Z,15.30
2023-02-24T02:16:10.778Z,16.20
2023-02-24T02:16:31.983Z,15.10
2023-02-24T02:16:53.058Z,15.60
2023-02-24T02:17:14.140Z,15.40
2023-02-24T02:17:35.184Z,15.20
2023-02-24T02:17:56.232Z,15.00
2023-02-24T02:18:17.447Z,16.30
2023-02-24T02:18:38.505Z,15.80
2023-02-24T02:18:59.562Z,15.30
2023-02-24T02:19:20.671Z,15.80
2023-02-24T02:19:41.690Z,15.20
2023-02-24T02:20:02.745Z,15.80
2023-02-24T02:20:23.814Z,15.50
2023-02-24T02:20:44.866Z,15.50
2023-02-24T02:21:05.930Z,15.40
2023-02-24T02:21:27.044Z,15.70
2023-02-24T02:21:48.073Z,15.40
2023-02-24T02:22:09.128Z,15.30
2023-02-24T02:22:30.197Z,15.50
2023-02-24T02:22:51.282Z,16.50
2023-02-24T02:23:12.318Z,16.00
2023-02-24T02:23:33.389Z,15.50
2023-02-24T02:23:54.491Z,15.60
2023-02-24T02:24:15.521Z,15.00
2023-02-24T02:24:36.571Z,15.70
2023-02-24T02:24:57.623Z,15.20
2023-02-24T02:25:18.684Z,15.50
2023-02-24T02:25:39.731Z,15.50
2023-02-24T02:26:00.852Z,15.30
2023-02-24T02:26:21.898Z,16.30
2023-02-24T02:26:42.940Z,15.70
2023-02-24T02:27:03.993Z,16.10
2023-02-24T02:27:25.064Z,16.30
2023-02-24T02:27:46.120Z,15.80
2023-02-24T02:28:07.178Z,15.00
2023-02-24T02:28:28.231Z,15.00
2023-02-24T02:28:49.324Z,15.70
2023-02-24T02:29:10.350Z,16.50
2023-02-24T02:29:31.410Z,16.00
2023-02-24T02:29:52.476Z,15.30
2023-02-24T02:30:13.537Z,16.00
2023-02-24T02:30:34.620Z,16.10
2023-02-24T02:30:55.723Z,16.50
2023-02-24T02:31:16.904Z,16.70
2023-02-24T02:31:38.327Z,17.80
2023-02-24T02:31:59.616Z,16.70
2023-02-24T02:32:20.845Z,16.30
2023-02-24T02:32:42.099Z,17.00
2023-02-24T02:33:03.204Z,17.20
2023-02-24T02:33:24.248Z,16.70
2023-02-24T02:33:45.319Z,17.40
2023-02-24T02:34:06.527Z,17.10
2023-02-24T02:34:27.598Z,15.80
2023-02-24T02:34:48.641Z,16.20
2023-02-24T02:35:09.701Z,16.20
2023-02-24T02:35:30.871Z,16.90
2023-02-24T02:35:51.923Z,17.40
2023-02-24T02:36:13.008Z,17.10
2023-02-24T02:36:34.041Z,16.50
2023-02-24T02:36:55.113Z,16.90
2023-02-24T02:37:16.180Z,16.60
2023-02-24T02:37:37.243Z,17.10
2023-02-24T02:37:58.347Z,17.40
2023-02-24T02:38:19.379Z,17.20
2023-02-24T02:38:40.438Z,16.50
2023-02-24T02:39:01.492Z,17.50
2023-02-24T02:39:22.565Z,17.10
2023-02-24T02:39:43.630Z,17.40
2023-02-24T02:40:04.681Z,18.00
2023-02-24T02:40:25.746Z,17.70
2023-02-24T02:40:46.796Z,17.10
2023-02-24T02:41:07.849Z,16.70
2023-02-24T02:41:28.916Z,17.30
2023-02-24T02:41:49.977Z,17.60
2023-02-24T02:42:11.033Z,17.90
2023-02-24T02:42:32.103Z,16.80
2023-02-24T02:42:53.166Z,17.00
2023-02-24T02:43:14.213Z,17.10
2023-02-24T02:43:35.293Z,17.40
2023-02-24T02:43:56.362Z,17.30
2023-02-24T02:44:17.410Z,17.10
2023-02-24T02:44:38.483Z,17.20
2023-02-24T02:44:59.542Z,17.70
2023-02-24T02:45:20.653Z,17.70
2023-02-24T02:45:41.755Z,16.50
2023-02-24T02:46:02.889Z,16.80
2023-02-24T02:46:23.952Z,16.60
2023-02-24T02:46:45.040Z,17.00
2023-02-24T02:47:06.069Z,17.10
2023-02-24T02:47:27.121Z,17.90
2023-02-24T02:47:48.221Z,17.70
2023-02-24T02:48:09.291Z,17.10
2023-02-24T02:48:30.343Z,16.40
2023-02-24T02:48:51.408Z,17.20
2023-02-24T02:49:12.504Z,17.40
2023-02-24T02:49:33.541Z,17.80
2023-02-24T02:49:54.600Z,17.60
2023-02-24T02:50:15.663Z,17.20
2023-02-24T02:50:36.719Z,16.40
2023-02-24T02:50:57.779Z,16.60
2023-02-24T02:51:19.137Z,17.30
2023-02-24T02:51:40.275Z,16.80
2023-02-24T02:52:01.333Z,17.40
2023-02-24T02:52:22.385Z,17.50
2023-02-24T02:52:43.457Z,17.00
2023-02-24T02:53:04.547Z,17.00
2023-02-24T02:53:25.588Z,17.10
2023-02-24T02:53:46.663Z,17.50
2023-02-24T02:54:07.715Z,17.50
2023-02-24T02:54:28.776Z,17.40
2023-02-24T02:54:49.948Z,16.70
2023-02-24T02:55:11.020Z,16.40
2023-02-24T02:55:32.074Z,16.90
2023-02-24T02:55:53.143Z,17.00
2023-02-24T02:56:14.255Z,17.40
2023-02-24T02:56:35.271Z,18.10
2023-02-24T02:56:56.337Z,16.80
2023-02-24T02:57:17.398Z,16.10
2023-02-24T02:57:38.469Z,16.60
2023-02-24T02:57:59.518Z,17.00
2023-02-24T02:58:20.646Z,16.90
2023-02-24T02:58:41.699Z,16.20
2023-02-24T02:59:02.755Z,16.90
2023-02-24T02:59:23.811Z,16.30
2023-02-24T02:59:44.883Z,15.80
2023-02-24T03:00:05.946Z,16.50
2023-02-24T03:00:27.143Z,16.80
2023-02-24T03:00:48.219Z,16.40
2023-02-24T03:01:09.278Z,16.20
2023-02-24T03:01:30.443Z,17.50
2023-02-24T03:01:51.527Z,17.70
2023-02-24T03:02:12.557Z,16.50
2023-02-24T03:02:33.612Z,16.10
2023-02-24T03:02:54.664Z,16.50
2023-02-24T03:03:15.720Z,17.70
2023-02-24T03:03:36.800Z,17.00
2023-02-24T03:03:57.850Z,16.80
2023-02-24T03:04:18.938Z,17.10
2023-02-24T03:04:39.993Z,16.30
2023-02-24T03:05:01.061Z,16.50
2023-02-24T03:05:22.122Z,16.80
2023-02-24T03:05:43.328Z,16.70
2023-02-24T03:06:04.428Z,16.90
2023-02-24T03:06:25.465Z,16.40
2023-02-24T03:06:46.524Z,17.30
2023-02-24T03:07:07.606Z,16.80
2023-02-24T03:07:28.638Z,16.30
2023-02-24T03:07:49.708Z,16.20
2023-02-24T03:08:10.785Z,16.70
2023-02-24T03:08:31.816Z,16.70
2023-02-24T03:08:52.879Z,15.90
2023-02-24T03:09:13.935Z,15.90
2023-02-24T03:09:34.981Z,16.40
2023-02-24T03:09:56.037Z,17.30
2023-02-24T03:10:17.105Z,16.20
2023-02-24T03:10:38.186Z,16.10
2023-02-24T03:10:59.237Z,16.90
2023-02-24T03:11:20.590Z,15.90
2023-02-24T03:11:41.839Z,15.70
2023-02-24T03:12:02.864Z,16.50
2023-02-24T03:12:23.934Z,16.30
2023-02-24T03:12:45.020Z,16.20
2023-02-24T03:13:06.065Z,16.90
2023-02-24T03:13:27.116Z,16.60
2023-02-24T03:13:48.185Z,16.00
2023-02-24T03:14:09.233Z,16.90
2023-02-24T03:14:30.304Z,18.10
2023-02-24T03:14:51.386Z,17.70
2023-02-24T03:15:12.403Z,17.10
2023-02-24T03:15:33.462Z,16.60
2023-02-24T03:15:54.545Z,16.80
2023-02-24T03:16:15.658Z,16.50
2023-02-24T03:16:36.766Z,16.50
2023-02-24T03:16:57.822Z,16.70
2023-02-24T03:17:18.877Z,16.30
2023-02-24T03:17:39.983Z,16.90
2023-02-24T03:18:01.037Z,16.10
2023-02-24T03:18:22.089Z,17.80
2023-02-24T03:18:43.150Z,16.80
2023-02-24T03:19:04.197Z,16.00
2023-02-24T03:19:25.255Z,17.20
2023-02-24T03:19:46.322Z,16.10
2023-02-24T03:20:07.380Z,16.70
2023-02-24T03:20:28.438Z,17.10
2023-02-24T03:20:49.516Z,16.80
2023-02-24T03:21:10.590Z,16.40
2023-02-24T03:21:31.646Z,16.50
2023-02-24T03:21:52.767Z,16.10
2023-02-24T03:22:13.780Z,16.60
2023-02-24T03:22:34.853Z,17.20
2023-02-24T03:22:55.906Z,17.00
2023-02-24T03:23:17.032Z,16.00
2023-02-24T03:23:38.053Z,16.40
2023-02-24T03:23:59.118Z,17.10
2023-02-24T03:24:20.181Z,17.10
2023-02-24T03:24:41.268Z,17.80
2023-02-24T03:25:02.312Z,17.60
2023-02-24T03:25:23.352Z,16.80
2023-02-24T03:25:44.490Z,17.10
2023-02-24T03:26:05.558Z,16.90
2023-02-24T03:26:26.632Z,16.30
2023-02-24T03:26:47.694Z,16.40
2023-02-24T03:27:08.773Z,17.20
2023-02-24T03:27:29.830Z,17.40
2023-02-24T03:27:50.865Z,17.30
2023-02-24T03:28:11.922Z,16.80
2023-02-24T03:28:32.978Z,16.50
2023-02-24T03:28:54.030Z,15.70
2023-02-24T03:29:15.099Z,16.40
2023-02-24T03:29:36.153Z,17.20
2023-02-24T03:29:57.218Z,17.40
2023-02-24T03:30:18.385Z,17.20
2023-02-24T03:30:39.427Z,16.80
2023-02-24T03:31:00.629Z,16.70
2023-02-24T03:31:22.230Z,17.50
2023-02-24T03:31:43.664Z,17.20
2023-02-24T03:32:04.939Z,17.70
2023-02-24T03:32:26.220Z,17.50
2023-02-24T03:32:47.534Z,17.10
2023-02-24T03:33:08.620Z,16.60
2023-02-24T03:33:29.730Z,16.20
2023-02-24T03:33:50.758Z,17.10
2023-02-24T03:34:11.803Z,16.90
2023-02-24T03:34:32.861Z,16.80
2023-02-24T03:34:53.937Z,17.00
2023-02-24T03:35:14.980Z,16.30
2023-02-24T03:35:36.035Z,16.50
2023-02-24T03:35:57.088Z,16.70
2023-02-24T03:36:18.167Z,16.80
2023-02-24T03:36:39.393Z,17.50
2023-02-24T03:37:00.458Z,17.10
2023-02-24T03:37:21.549Z,17.60
2023-02-24T03:37:42.595Z,16.50
2023-02-24T03:38:03.676Z,17.00
2023-02-24T03:38:24.723Z,18.00
2023-02-24T03:38:45.761Z,17.90
2023-02-24T03:39:06.814Z,16.50
2023-02-24T03:39:27.928Z,17.10
2023-02-24T03:39:48.942Z,17.20
2023-02-24T03:40:10.001Z,17.00
2023-02-24T03:40:31.056Z,16.70
2023-02-24T03:40:52.141Z,18.00
2023-02-24T03:41:13.178Z,17.00
2023-02-24T03:41:34.242Z,16.90
2023-02-24T03:41:55.315Z,17.10
2023-02-24T03:42:16.410Z,17.80
2023-02-24T03:42:37.438Z,16.70
2023-02-24T03:42:58.494Z,17.40
2023-02-24T03:43:19.556Z,18.20
2023-02-24T03:43:40.604Z,17.00
2023-02-24T03:44:01.659Z,17.00
2023-02-24T03:44:22.733Z,16.90
2023-02-24T03:44:43.779Z,16.80
2023-02-24T03:45:04.856Z,16.90
2023-02-24T03:45:25.920Z,17.70
2023-02-24T03:45:47.065Z,17.50
2023-02-24T03:46:08.177Z,17.30
2023-02-24T03:46:29.319Z,17.30
2023-02-24T03:46:50.375Z,16.80
2023-02-24T03:47:11.453Z,16.90
2023-02-24T03:47:32.510Z,17.10
2023-02-24T03:47:53.565Z,17.20
2023-02-24T03:48:14.626Z,17.30
2023-02-24T03:48:35.715Z,16.70
2023-02-24T03:48:56.745Z,16.80
2023-02-24T03:49:17.812Z,17.50
2023-02-24T03:49:38.870Z,17.00
2023-02-24T03:49:59.948Z,17.30
2023-02-24T03:50:20.996Z,17.50
2023-02-24T03:50:42.129Z,18.00
2023-02-24T03:51:03.154Z,16.90
2023-02-24T03:51:24.204Z,16.70
2023-02-24T03:51:45.274Z,17.20
2023-02-24T03:52:06.481Z,17.00
2023-02-24T03:52:27.549Z,17.10
2023-02-24T03:52:48.605Z,16.60
2023-02-24T03:53:09.663Z,16.70
2023-02-24T03:53:30.797Z,16.20
2023-02-24T03:53:51.902Z,16.30
2023-02-24T03:54:12.971Z,16.30
2023-02-24T03:54:34.024Z,16.50
2023-02-24T03:54:55.077Z,16.60
2023-02-24T03:55:16.129Z,17.30
2023-02-24T03:55:37.193Z,16.20
2023-02-24T03:55:58.240Z,16.50
2023-02-24T03:56:19.310Z,17.20
2023-02-24T03:56:40.388Z,17.40
2023-02-24T03:57:01.478Z,16.40
2023-02-24T03:57:22.506Z,16.30
2023-02-24T03:57:43.570Z,16.90
2023-02-24T03:58:04.620Z,15.90
2023-02-24T03:58:25.673Z,16.20
2023-02-24T03:58:46.772Z,16.40
2023-02-24T03:59:07.876Z,16.30
2023-02-24T03:59:28.965Z,16.70
2023-02-24T03:59:50.040Z,16.50
2023-02-24T04:00:11.079Z,16.40
2023-02-24T04:00:32.133Z,16.00
2023-02-24T04:00:53.196Z,16.80
2023-02-24T04:01:14.259Z,16.20
2023-02-24T04:01:35.308Z,16.10
2023-02-24T04:01:56.371Z,17.10
2023-02-24T04:02:17.471Z,16.80
2023-02-24T04:02:38.710Z,15.60
2023-02-24T04:02:59.778Z,17.20
2023-02-24T04:03:20.827Z,16.30
2023-02-24T04:03:41.912Z,16.40
2023-02-24T04:04:02.979Z,15.90
2023-02-24T04:04:24.081Z,16.00
2023-02-24T04:04:45.153Z,16.20
2023-02-24T04:05:06.277Z,15.40
2023-02-24T04:05:27.375Z,15.80
2023-02-24T04:05:48.446Z,15.70
2023-02-24T04:06:09.486Z,15.40
2023-02-24T04:06:30.565Z,16.00
2023-02-24T04:06:51.618Z,16.30
2023-02-24T04:07:12.675Z,15.20
2023-02-24T04:07:33.879Z,14.90
2023-02-24T04:07:54.934Z,15.40
2023-02-24T04:08:16.013Z,15.40
2023-02-24T04:08:37.093Z,15.20
2023-02-24T04:08:58.137Z,15.20
2023-02-24T04:09:19.193Z,16.60
2023-02-24T04:09:40.249Z,16.80
2023-02-24T04:10:01.359Z,15.70
2023-02-24T04:10:22.408Z,16.00
2023-02-24T04:10:43.450Z,15.60
2023-02-24T04:11:04.512Z,15.70
2023-02-24T04:11:25.578Z,15.50
2023-02-24T04:11:46.625Z,16.00
2023-02-24T04:12:07.678Z,16.60
2023-02-24T04:12:28.800Z,16.60
2023-02-24T04:12:49.923Z,15.40
2023-02-24T04:13:10.947Z,15.50
2023-02-24T04:13:32.004Z,16.10
2023-02-24T04:13:53.063Z,16.60
2023-02-24T04:14:14.121Z,17.00
2023-02-24T04:14:35.192Z,16.30
2023-02-24T04:14:56.276Z,16.20
2023-02-24T04:15:17.325Z,15.80
2023-02-24T04:15:38.419Z,16.50
2023-02-24T04:15:59.530Z,16.60
2023-02-24T04:16:20.674Z,16.10
2023-02-24T04:16:41.706Z,16.40
2023-02-24T04:17:02.793Z,16.70
2023-02-24T04:17:23.841Z,15.80
2023-02-24T04:17:44.921Z,15.00
2023-02-24T04:18:05.982Z,15.30
2023-02-24T04:18:27.035Z,16.00
2023-02-24T04:18:48.099Z,15.60
2023-02-24T04:19:09.162Z,15.30
2023-02-24T04:19:30.248Z,15.80
2023-02-24T04:19:51.289Z,15.20
2023-02-24T04:20:12.359Z,14.90
2023-02-24T04:20:33.401Z,15.00
2023-02-24T04:20:54.462Z,15.60
2023-02-24T04:21:15.528Z,15.30
2023-02-24T04:21:36.610Z,15.40
2023-02-24T04:21:57.657Z,15.70
2023-02-24T04:22:18.699Z,16.90
2023-02-24T04:22:39.751Z,15.40
2023-02-24T04:23:00.923Z,15.90
2023-02-24T04:23:21.991Z,16.40
2023-02-24T04:23:43.097Z,15.70
2023-02-24T04:24:04.161Z,15.20
2023-02-24T04:24:25.196Z,15.50
2023-02-24T04:24:46.247Z,15.40
2023-02-24T04:25:07.321Z,15.60
2023-02-24T04:25:28.359Z,16.30
2023-02-24T04:25:49.456Z,15.60
2023-02-24T04:26:10.494Z,15.70
2023-02-24T04:26:31.531Z,16.30
2023-02-24T04:26:52.601Z,14.80
2023-02-24T04:27:13.747Z,15.90
2023-02-24T04:27:34.811Z,15.80
2023-02-24T04:27:55.852Z,15.40
2023-02-24T04:28:16.919Z,16.40
2023-02-24T04:28:37.984Z,16.80
2023-02-24T04:28:59.127Z,16.30
2023-02-24T04:29:20.148Z,16.60
2023-02-24T04:29:41.197Z,15.70
2023-02-24T04:30:02.263Z,16.20
2023-02-24T04:30:23.314Z,16.50
2023-02-24T04:30:44.523Z,16.20
2023-02-24T04:31:05.694Z,16.60
2023-02-24T04:31:27.087Z,16.40